Time;durP1;ratioP1;P1;durP2;ratioP2;P2;SDS_P1;SDS_P2;PMS_P1;PMS_P2;Temp;Humidity;BMP_temperature;BMP_pressure;BME280_temperature;BME280_humidity;BME280_pressure;Samples;Min_cycle;Max_cycle;Signal;HPM_P1;HPM_P2
2021/06/24 00:02:09;;;;;;;;;;;28.20;91.10;;;;;;1879311;74;20072;-93
2021/06/24 00:05:08;;;;;;;;;;;;;;;;;;;;;
2021/06/24 00:07:53;;;;;;;;;;;28.20;91.20;;;;;;1873784;73;20225;-93
2021/06/24 00:10:44;;;;;;;;;;;28.20;91.10;;;;;;1869325;74;20179;-92
2021/06/24 00:13:31;;;;;;;;;;;28.30;91.50;;;;;;1869164;75;20130;-91
2021/06/24 00:16:23;;;;;;;;;;;28.30;90.90;;;;;;1932129;73;20148;-90
2021/06/24 00:18:58;;;;;;;;;;;28.30;90.90;;;;;;1926368;73;20178;-91
2021/06/24 00:21:48;;;;;;;;;;;28.20;90.90;;;;;;1901235;73;20185;-80
2021/06/24 00:24:17;;;;;;;;;;;28.30;91.10;;;;;;1925561;73;20225;-80
2021/06/24 00:26:47;;;;;;;;;;;28.30;90.90;;;;;;1928296;73;20171;-80
2021/06/24 00:29:16;;;;;;;;;;;28.50;90.90;;;;;;1885197;74;21025;-80
2021/06/24 00:31:49;;;;;;;;;;;28.50;90.80;;;;;;1934149;73;20246;-80
2021/06/24 00:34:19;;;;;;;;;;;28.50;90.60;;;;;;1877226;74;20165;-81
2021/06/24 00:36:49;;;;;;;;;;;28.50;90.60;;;;;;1885192;74;20986;-80
2021/06/24 00:39:18;;;;;;;;;;;28.50;90.60;;;;;;1918507;73;20479;-80
2021/06/24 00:41:51;;;;;;;;;;;28.40;90.70;;;;;;1932447;73;20227;-79
2021/06/24 00:44:21;;;;;;;;;;;28.40;90.90;;;;;;1921914;73;20229;-80
2021/06/24 00:46:53;;;;;;;;;;;28.30;90.90;;;;;;1942190;73;20468;-80
2021/06/24 00:49:22;;;;;;;;;;;28.40;90.70;;;;;;1931265;73;20220;-79
2021/06/24 00:51:53;;;;;;;;;;;28.30;91.00;;;;;;1909669;75;20241;-80
2021/06/24 00:54:23;;;;;;;;;;;28.30;91.10;;;;;;1906572;75;20550;-79
2021/06/24 00:56:52;;;;;;;;;;;28.30;91.10;;;;;;1908013;75;20208;-81
2021/06/24 00:59:36;;;;;;;;;;;28.30;91.00;;;;;;1911852;75;20217;-81
2021/06/24 01:01:53;;;;;;;;;;;28.40;91.10;;;;;;1907075;73;20123;-81
2021/06/24 01:04:23;;;;;;;;;;;28.40;91.10;;;;;;1899735;74;20178;-81
2021/06/24 01:06:54;;;;;;;;;;;28.40;91.00;;;;;;1904625;75;20229;-78
2021/06/24 01:09:23;;;;;;;;;;;28.40;91.00;;;;;;1952724;72;20195;-82
2021/06/24 01:11:56;;;;;;;;;;;28.50;91.10;;;;;;1958746;72;20248;-80
2021/06/24 01:14:24;;;;;;;;;;;28.60;91.10;;;;;;1959322;72;20147;-80
2021/06/24 01:16:55;;;;;;;;;;;28.50;90.90;;;;;;1949045;73;20158;-81
2021/06/24 01:19:26;;;;;;;;;;;28.50;91.00;;;;;;1909673;74;20160;-80
2021/06/24 01:21:59;;;;;;;;;;;28.60;91.00;;;;;;1921273;74;20457;-82
2021/06/24 01:24:29;;;;;;;;;;;28.60;90.70;;;;;;1914522;74;20201;-85
2021/06/24 01:26:59;;;;;;;;;;;28.70;90.70;;;;;;1897709;74;20615;-80
2021/06/24 01:29:31;;;;;;;;;;;28.80;90.50;;;;;;1901323;75;20127;-82
2021/06/24 01:32:08;;;;;;;;;;;28.90;90.40;;;;;;1954730;72;20252;-86
2021/06/24 01:34:38;;;;;;;;;;;29.00;90.20;;;;;;1961537;72;20159;-81
2021/06/24 01:37:06;;;;;;;;;;;29.10;89.70;;;;;;1958586;72;20191;-80
2021/06/24 01:39:38;;;;;;;;;;;29.20;87.20;;;;;;1926639;73;20203;-80
2021/06/24 01:42:09;;;;;;;;;;;29.30;86.50;;;;;;1928251;73;20241;-79
2021/06/24 01:44:39;;;;;;;;;;;29.30;86.80;;;;;;1934079;73;20196;-80
2021/06/24 01:47:14;;;;;;;;;;;29.40;86.40;;;;;;1894564;74;20211;-79
2021/06/24 01:49:42;;;;;;;;;;;29.40;86.50;;;;;;1886565;74;20171;-78
2021/06/24 01:52:12;;;;;;;;;;;29.50;86.80;;;;;;1909216;74;20390;-79
2021/06/24 01:54:43;;;;;;;;;;;29.60;87.20;;;;;;1905157;73;20196;-78
2021/06/24 01:57:17;;;;;;;;;;;29.70;86.50;;;;;;1883781;74;20191;-85
2021/06/24 01:59:58;;;;;;;;;;;;;;;;;;;;;
2021/06/24 02:02:27;;;;;;;;;;;29.90;85.50;;;;;;1962737;72;20236;-80
2021/06/24 02:04:57;;;;;;;;;;;29.90;84.80;;;;;;1928766;73;20161;-79
2021/06/24 02:07:27;;;;;;;;;;;30.00;84.40;;;;;;1906838;74;20198;-79
2021/06/24 02:10:00;;;;;;;;;;;30.00;84.60;;;;;;1954309;72;20520;-80
2021/06/24 02:12:27;;;;;;;;;;;30.00;84.30;;;;;;1955493;72;20478;-80
2021/06/24 02:14:57;;;;;;;;;;;30.10;84.10;;;;;;1960839;72;20262;-80
2021/06/24 02:17:26;;;;;;;;;;;30.20;83.50;;;;;;1953717;72;20204;-81
2021/06/24 02:19:57;;;;;;;;;;;30.40;82.50;;;;;;1944744;73;20189;-79
2021/06/24 02:22:26;;;;;;;;;;;30.50;82.30;;;;;;1909048;75;20509;-79
2021/06/24 02:24:59;;;;;;;;;;;30.60;79.40;;;;;;1954212;72;20195;-79
2021/06/24 02:27:28;;;;;;;;;;;30.60;80.10;;;;;;1926796;73;20193;-79
2021/06/24 02:29:58;;;;;;;;;;;30.70;80.90;;;;;;1887698;75;20192;-81
2021/06/24 02:32:28;;;;;;;;;;;30.80;81.10;;;;;;1894231;76;20521;-80
2021/06/24 02:34:58;;;;;;;;;;;30.90;80.10;;;;;;1921947;74;20246;-81
2021/06/24 02:37:28;;;;;;;;;;;30.90;79.30;;;;;;1903445;75;20191;-81
2021/06/24 02:39:57;;;;;;;;;;;31.00;79.20;;;;;;1911462;74;20177;-79
2021/06/24 02:42:27;;;;;;;;;;;31.00;79.30;;;;;;1913694;75;20421;-80
2021/06/24 02:44:57;;;;;;;;;;;31.10;79.30;;;;;;1909817;74;20221;-81
2021/06/24 02:47:27;;;;;;;;;;;31.20;78.30;;;;;;1903168;75;20229;-81
2021/06/24 02:49:57;;;;;;;;;;;31.20;78.60;;;;;;1911337;75;20237;-81
2021/06/24 02:52:27;;;;;;;;;;;31.40;77.70;;;;;;1957356;72;20206;-81
2021/06/24 02:54:57;;;;;;;;;;;31.40;77.30;;;;;;1950656;72;20223;-81
2021/06/24 02:57:27;;;;;;;;;;;31.50;77.20;;;;;;1957261;73;20207;-81
2021/06/24 02:59:56;;;;;;;;;;;31.60;77.20;;;;;;1954268;72;20273;-81
2021/06/24 03:02:26;;;;;;;;;;;31.70;76.50;;;;;;1954322;72;20179;-81
2021/06/24 03:04:56;;;;;;;;;;;31.80;75.50;;;;;;1959317;73;20221;-82
2021/06/24 03:07:31;;;;;;;;;;;31.90;74.60;;;;;;1951164;72;20218;-81
2021/06/24 03:10:10;;;;;;;;;;;31.90;74.80;;;;;;1932056;72;20239;-81
2021/06/24 03:12:40;;;;;;;;;;;32.00;75.40;;;;;;1963703;72;20097;-81
2021/06/24 03:15:12;;;;;;;;;;;32.10;74.20;;;;;;1958682;73;20229;-79
2021/06/24 03:17:42;;;;;;;;;;;32.20;74.70;;;;;;1928941;71;20512;-79
2021/06/24 03:20:13;;;;;;;;;;;32.30;73.50;;;;;;1911345;75;20219;-79
2021/06/24 03:22:46;;;;;;;;;;;32.40;73.60;;;;;;1894231;75;20167;-81
2021/06/24 03:25:16;;;;;;;;;;;32.40;73.00;;;;;;1910836;73;20529;-80
2021/06/24 03:27:50;;;;;;;;;;;32.60;72.70;;;;;;1910072;74;20235;-80
2021/06/24 03:30:17;;;;;;;;;;;32.60;72.10;;;;;;1908240;73;20199;-78
2021/06/24 03:32:49;;;;;;;;;;;32.70;71.60;;;;;;1905588;74;20152;-79
2021/06/24 03:35:19;;;;;;;;;;;32.70;71.40;;;;;;1912966;73;20411;-78
2021/06/24 03:37:49;;;;;;;;;;;32.70;71.30;;;;;;1913008;74;20159;-79
2021/06/24 03:40:18;;;;;;;;;;;32.80;71.20;;;;;;1906818;75;20212;-79
2021/06/24 03:42:51;;;;;;;;;;;32.80;71.10;;;;;;1909003;75;20187;-79
2021/06/24 03:45:19;;;;;;;;;;;33.00;68.90;;;;;;1905818;75;20246;-79
2021/06/24 03:47:49;;;;;;;;;;;33.00;68.70;;;;;;1908399;75;20252;-79
2021/06/24 03:50:20;;;;;;;;;;;33.10;69.00;;;;;;1909463;74;20220;-80
2021/06/24 03:52:52;;;;;;;;;;;33.00;69.10;;;;;;1913681;73;20191;-80
2021/06/24 03:55:35;;;;;;;;;;;33.20;69.30;;;;;;1928325;73;20395;-80
2021/06/24 03:57:54;;;;;;;;;;;33.30;67.50;;;;;;1910529;73;20208;-79
2021/06/24 04:00:24;;;;;;;;;;;33.30;68.00;;;;;;1917911;73;20151;-80
2021/06/24 04:03:10;;;;;;;;;;;33.40;68.20;;;;;;1910775;73;20227;-80
2021/06/24 04:05:39;;;;;;;;;;;33.50;68.00;;;;;;1888172;75;20196;-78
2021/06/24 04:08:11;;;;;;;;;;;33.40;66.30;;;;;;1909374;74;20267;-79
2021/06/24 04:10:42;;;;;;;;;;;33.30;66.50;;;;;;1911540;73;20486;-82
2021/06/24 04:13:12;;;;;;;;;;;33.30;66.40;;;;;;1909896;74;20289;-81
2021/06/24 04:15:41;;;;;;;;;;;33.20;67.70;;;;;;1880661;76;20253;-80
2021/06/24 04:18:14;;;;;;;;;;;33.30;67.50;;;;;;1890967;73;20221;-80
2021/06/24 04:20:42;;;;;;;;;;;33.30;67.40;;;;;;1907121;75;20635;-79
2021/06/24 04:23:12;;;;;;;;;;;33.30;66.90;;;;;;1906910;75;20868;-79
2021/06/24 04:25:41;;;;;;;;;;;33.30;67.00;;;;;;1905739;75;20131;-79
2021/06/24 04:28:11;;;;;;;;;;;33.20;67.60;;;;;;1905822;74;20507;-79
2021/06/24 04:30:44;;;;;;;;;;;33.20;67.10;;;;;;1877355;74;20207;-79
2021/06/24 04:33:13;;;;;;;;;;;33.20;68.20;;;;;;1940741;73;20161;-79
2021/06/24 04:35:43;;;;;;;;;;;33.20;67.20;;;;;;1899359;74;20335;-80
2021/06/24 04:38:16;;;;;;;;;;;33.20;67.40;;;;;;1904672;74;20224;-80
2021/06/24 04:40:46;;;;;;;;;;;33.20;67.70;;;;;;1903778;74;20198;-80
2021/06/24 04:43:21;;;;;;;;;;;33.20;67.40;;;;;;1906217;74;20233;-80
2021/06/24 04:45:54;;;;;;;;;;;33.20;67.80;;;;;;1870951;75;20185;-80
2021/06/24 04:48:31;;;;;;;;;;;33.10;67.70;;;;;;1905813;74;20213;-80
2021/06/24 04:51:00;;;;;;;;;;;33.10;68.10;;;;;;1904598;74;20291;-79
2021/06/24 04:53:35;;;;;;;;;;;33.20;68.30;;;;;;1916398;73;20207;-79
2021/06/24 04:56:03;;;;;;;;;;;33.30;68.40;;;;;;1909090;73;20194;-80
2021/06/24 04:58:37;;;;;;;;;;;33.30;68.90;;;;;;1925585;73;20176;-79
2021/06/24 05:01:08;;;;;;;;;;;33.30;68.80;;;;;;1879548;74;20520;-79
2021/06/24 05:03:40;;;;;;;;;;;33.40;68.70;;;;;;1913544;73;20235;-80
2021/06/24 05:06:10;;;;;;;;;;;33.60;67.70;;;;;;1910952;74;20195;-79
2021/06/24 05:08:42;;;;;;;;;;;33.80;66.50;;;;;;1906487;74;20173;-80
2021/06/24 05:11:11;;;;;;;;;;;33.80;66.50;;;;;;1908558;74;20127;-80
2021/06/24 05:13:48;;;;;;;;;;;33.90;67.20;;;;;;1914944;73;20240;-82
2021/06/24 05:16:24;;;;;;;;;;;34.00;66.00;;;;;;1903378;74;20183;-82
2021/06/24 05:19:01;;;;;;;;;;;34.10;65.50;;;;;;1898648;74;20243;-84
2021/06/24 05:21:31;;;;;;;;;;;34.00;65.60;;;;;;1899669;74;20260;-80
2021/06/24 05:24:05;;;;;;;;;;;34.00;65.30;;;;;;1902747;73;20115;-82
2021/06/24 05:26:40;;;;;;;;;;;34.00;65.30;;;;;;1895603;74;20129;-87
2021/06/24 05:29:15;;;;;;;;;;;34.10;64.70;;;;;;1903825;74;20234;-80
2021/06/24 05:31:48;;;;;;;;;;;34.10;64.20;;;;;;1897556;74;20173;-81
2021/06/24 05:34:18;;;;;;;;;;;34.20;63.70;;;;;;1905215;74;20354;-81
2021/06/24 05:36:53;;;;;;;;;;;34.30;64.10;;;;;;1899010;74;20232;-79
2021/06/24 05:39:28;;;;;;;;;;;34.40;62.70;;;;;;1895942;74;20200;-79
2021/06/24 05:42:00;;;;;;;;;;;34.40;61.90;;;;;;1899687;74;20161;-79
2021/06/24 05:44:33;;;;;;;;;;;34.60;62.20;;;;;;1892993;74;20188;-78
2021/06/24 05:47:06;;;;;;;;;;;34.60;60.50;;;;;;1901409;74;20244;-79
2021/06/24 05:49:37;;;;;;;;;;;34.80;60.70;;;;;;1900278;74;20216;-83
2021/06/24 05:52:09;;;;;;;;;;;34.80;60.30;;;;;;1902535;74;20224;-79
2021/06/24 05:54:39;;;;;;;;;;;34.90;60.30;;;;;;1902559;74;20439;-81
2021/06/24 05:57:13;;;;;;;;;;;34.90;59.70;;;;;;1897649;74;20161;-83
2021/06/24 05:59:46;;;;;;;;;;;35.00;59.60;;;;;;1902278;74;20515;-86
2021/06/24 06:02:13;;;;;;;;;;;35.00;59.50;;;;;;1896754;74;20220;-80
2021/06/24 06:04:49;;;;;;;;;;;35.00;59.80;;;;;;1903768;74;20233;-82
2021/06/24 06:07:19;;;;;;;;;;;34.90;60.40;;;;;;1899851;74;20118;-81
2021/06/24 06:09:50;;;;;;;;;;;34.90;60.00;;;;;;1897563;74;20224;-80
2021/06/24 06:12:22;;;;;;;;;;;34.90;60.00;;;;;;1908810;74;20614;-80
2021/06/24 06:14:57;;;;;;;;;;;34.90;60.50;;;;;;1904849;74;20170;-81
2021/06/24 06:17:29;;;;;;;;;;;34.90;59.10;;;;;;1896458;74;20559;-83
2021/06/24 06:20:09;;;;;;;;;;;34.90;59.00;;;;;;1901450;74;20299;-84
2021/06/24 06:22:35;;;;;;;;;;;34.90;59.30;;;;;;1905927;74;20150;-83
2021/06/24 06:25:05;;;;;;;;;;;34.80;58.30;;;;;;1893653;74;20161;-82
2021/06/24 06:27:36;;;;;;;;;;;34.80;59.30;;;;;;1891374;74;20192;-81
2021/06/24 06:30:07;;;;;;;;;;;34.80;59.80;;;;;;1892829;75;20302;-81
2021/06/24 06:32:38;;;;;;;;;;;34.90;59.10;;;;;;1893872;75;20303;-82
2021/06/24 06:35:09;;;;;;;;;;;35.00;58.60;;;;;;1895897;74;20259;-82
2021/06/24 06:37:40;;;;;;;;;;;35.10;58.30;;;;;;1893193;74;20234;-83
2021/06/24 06:40:12;;;;;;;;;;;35.10;59.20;;;;;;1896639;74;20259;-82
2021/06/24 06:42:42;;;;;;;;;;;35.10;58.60;;;;;;1894924;74;20205;-82
2021/06/24 06:45:13;;;;;;;;;;;35.10;58.70;;;;;;1890138;74;20207;-81
2021/06/24 06:47:43;;;;;;;;;;;35.10;57.90;;;;;;1894598;74;20193;-82
2021/06/24 06:50:19;;;;;;;;;;;35.10;57.80;;;;;;1895688;74;20197;-83
2021/06/24 06:52:48;;;;;;;;;;;35.10;57.20;;;;;;1897896;74;20181;-82
2021/06/24 06:55:17;;;;;;;;;;;35.20;57.40;;;;;;1899380;74;20201;-82
2021/06/24 06:57:49;;;;;;;;;;;35.40;57.30;;;;;;1903725;74;20157;-83
2021/06/24 07:00:29;;;;;;;;;;;35.50;57.10;;;;;;1909142;74;20277;-82
2021/06/24 07:02:54;;;;;;;;;;;35.60;55.80;;;;;;1900778;74;20153;-82
2021/06/24 07:05:24;;;;;;;;;;;35.50;55.90;;;;;;1910716;74;20231;-81
2021/06/24 07:07:55;;;;;;;;;;;35.60;56.50;;;;;;1924433;73;20206;-82
2021/06/24 07:10:25;;;;;;;;;;;35.60;56.00;;;;;;1934021;73;20216;-81
2021/06/24 07:12:55;;;;;;;;;;;35.60;56.70;;;;;;1885287;75;20497;-80
2021/06/24 07:15:24;;;;;;;;;;;35.50;57.10;;;;;;1875334;75;20242;-80
2021/06/24 07:18:01;;;;;;;;;;;35.50;56.70;;;;;;1893975;74;20234;-81
2021/06/24 07:20:31;;;;;;;;;;;35.30;56.30;;;;;;1907069;73;20226;-82
2021/06/24 07:23:06;;;;;;;;;;;35.20;56.80;;;;;;1924531;74;20122;-81
2021/06/24 07:25:36;;;;;;;;;;;35.00;57.20;;;;;;1924625;74;20188;-82
2021/06/24 07:28:07;;;;;;;;;;;35.00;57.90;;;;;;1935999;73;20220;-81
2021/06/24 07:30:36;;;;;;;;;;;35.10;57.50;;;;;;1935657;73;20178;-82
2021/06/24 07:33:06;;;;;;;;;;;35.20;58.50;;;;;;1938900;73;20291;-81
2021/06/24 07:35:37;;;;;;;;;;;35.30;58.10;;;;;;1943116;73;20582;-79
2021/06/24 07:38:07;;;;;;;;;;;35.40;57.40;;;;;;1927872;73;20287;-85
2021/06/24 07:40:37;;;;;;;;;;;35.50;56.20;;;;;;1925528;73;20211;-83
2021/06/24 07:43:09;;;;;;;;;;;35.60;55.60;;;;;;1920516;73;20184;-81
2021/06/24 07:45:39;;;;;;;;;;;35.50;56.10;;;;;;1935227;73;20193;-80
2021/06/24 07:48:09;;;;;;;;;;;35.50;55.90;;;;;;1925475;73;20201;-80
2021/06/24 07:50:50;;;;;;;;;;;35.50;56.10;;;;;;1927443;73;20169;-81
2021/06/24 07:53:21;;;;;;;;;;;35.40;56.70;;;;;;1926828;73;20397;-81
2021/06/24 07:55:51;;;;;;;;;;;35.30;56.40;;;;;;1927194;73;20180;-81
2021/06/24 07:58:21;;;;;;;;;;;35.20;56.80;;;;;;1924902;73;20290;-80
2021/06/24 08:00:54;;;;;;;;;;;35.20;57.80;;;;;;1935787;73;20247;-81
2021/06/24 08:06:31;;;;;;;;;;;35.20;58.50;;;;;;1782173;80;20167;-81
2021/06/24 08:09:02;;;;;;;;;;;35.20;58.40;;;;;;1765260;80;20236;-81
2021/06/24 08:11:31;;;;;;;;;;;35.20;58.50;;;;;;1762721;80;20221;-81
2021/06/24 08:14:01;;;;;;;;;;;35.20;59.70;;;;;;1790945;80;20237;-81
2021/06/24 08:16:31;;;;;;;;;;;35.30;60.60;;;;;;1740908;81;20284;-81
2021/06/24 08:19:02;;;;;;;;;;;35.30;60.10;;;;;;1773148;78;20180;-83
2021/06/24 08:21:35;;;;;;;;;;;35.20;60.50;;;;;;1740725;81;20166;-83
2021/06/24 08:24:23;;;;;;;;;;;35.10;59.80;;;;;;1740938;80;20184;-83
2021/06/24 08:26:53;;;;;;;;;;;35.10;60.00;;;;;;1756103;81;20193;-80
2021/06/24 08:29:26;;;;;;;;;;;35.00;60.70;;;;;;1731472;81;20263;-80
2021/06/24 08:32:00;;;;;;;;;;;35.00;59.70;;;;;;1738529;81;20282;-81
2021/06/24 08:34:29;;;;;;;;;;;34.90;59.30;;;;;;1776384;80;20201;-80
2021/06/24 08:36:58;;;;;;;;;;;34.80;60.60;;;;;;1732757;80;20300;-79
2021/06/24 08:39:28;;;;;;;;;;;34.60;61.60;;;;;;1779051;79;20273;-81
2021/06/24 08:41:59;;;;;;;;;;;34.10;62.40;;;;;;1746902;81;20218;-81
2021/06/24 08:44:34;;;;;;;;;;;33.60;64.20;;;;;;1872227;73;20225;-81
2021/06/24 08:47:05;;;;;;;;;;;33.20;65.80;;;;;;1959220;72;20124;-80
2021/06/24 08:49:36;;;;;;;;;;;32.90;67.20;;;;;;1952054;72;20207;-80
2021/06/24 08:52:06;;;;;;;;;;;32.70;67.30;;;;;;1958608;72;20227;-81
2021/06/24 08:54:38;;;;;;;;;;;32.50;68.00;;;;;;1925501;73;20210;-81
2021/06/24 08:57:14;;;;;;;;;;;32.30;68.10;;;;;;1926158;73;20201;-80
2021/06/24 08:59:48;;;;;;;;;;;32.20;68.60;;;;;;1916691;73;20212;-81
2021/06/24 09:02:23;;;;;;;;;;;32.20;68.50;;;;;;1923972;73;20184;-87
2021/06/24 09:04:55;;;;;;;;;;;32.20;69.10;;;;;;1934178;73;20156;-80
2021/06/24 09:07:32;;;;;;;;;;;32.20;69.20;;;;;;1900461;74;20191;-82
2021/06/24 09:10:03;;;;;;;;;;;32.10;71.10;;;;;;1966279;72;20191;-80
2021/06/24 09:12:32;;;;;;;;;;;32.10;70.50;;;;;;1901674;75;20243;-80
2021/06/24 09:15:03;;;;;;;;;;;32.10;73.20;;;;;;1890903;74;20200;-81
2021/06/24 09:17:33;;;;;;;;;;;32.00;74.90;;;;;;1961457;72;20479;-80
2021/06/24 09:20:20;;;;;;;;;;;31.70;75.90;;;;;;1964213;72;20156;-79
2021/06/24 09:22:54;;;;;;;;;;;31.50;80.80;;;;;;1945605;72;20436;-82
2021/06/24 09:25:28;;;;;;;;;;;31.20;82.70;;;;;;1943665;72;20542;-79
2021/06/24 09:27:55;;;;;;;;;;;31.00;82.10;;;;;;1945299;72;20281;-79
2021/06/24 09:30:26;;;;;;;;;;;30.90;80.80;;;;;;1948622;72;20179;-80
2021/06/24 09:32:56;;;;;;;;;;;30.70;81.00;;;;;;1949329;72;20180;-80
2021/06/24 09:35:30;;;;;;;;;;;30.50;81.80;;;;;;1948396;72;20213;-80
2021/06/24 09:38:28;;;;;;;;;;;30.40;85.70;;;;;;1950627;72;20254;-80
2021/06/24 09:40:58;;;;;;;;;;;30.30;86.80;;;;;;1945568;72;20317;-79
2021/06/24 09:43:31;;;;;;;;;;;30.10;85.30;;;;;;1953608;72;20207;-79
2021/06/24 09:46:13;;;;;;;;;;;30.00;86.10;;;;;;1947490;72;20210;-79
2021/06/24 09:48:36;;;;;;;;;;;30.00;86.20;;;;;;1941580;72;20179;-82
2021/06/24 09:51:07;;;;;;;;;;;29.90;87.20;;;;;;1946197;72;20231;-78
2021/06/24 09:53:39;;;;;;;;;;;29.90;88.60;;;;;;1904322;74;20122;-82
2021/06/24 09:56:22;;;;;;;;;;;29.90;87.90;;;;;;1858827;75;20239;-81
2021/06/24 09:58:52;;;;;;;;;;;30.00;88.30;;;;;;1898567;74;20520;-77
2021/06/24 10:04:13;;;;;;;;;;;29.90;83.80;;;;;;1832466;77;20169;-79
2021/06/24 10:06:42;;;;;;;;;;;30.00;87.40;;;;;;1800409;77;20572;-79
2021/06/24 10:09:12;;;;;;;;;;;29.90;86.40;;;;;;1877277;76;20297;-79
2021/06/24 10:11:42;;;;;;;;;;;29.90;86.10;;;;;;1881317;75;20199;-79
2021/06/24 10:14:15;;;;;;;;;;;29.70;83.70;;;;;;1877112;75;20315;-79
2021/06/24 10:17:00;;;;;;;;;;;29.60;84.20;;;;;;1878449;75;20192;-78
2021/06/24 10:19:33;;;;;;;;;;;29.70;84.40;;;;;;1877378;76;20137;-79
2021/06/24 10:22:04;;;;;;;;;;;29.70;84.40;;;;;;1838769;78;20202;-80
2021/06/24 10:24:38;;;;;;;;;;;29.60;83.90;;;;;;1840675;78;20907;-81
2021/06/24 10:27:09;;;;;;;;;;;29.60;83.50;;;;;;1810493;78;20161;-79
2021/06/24 10:29:39;;;;;;;;;;;29.60;82.30;;;;;;1838948;78;20293;-79
2021/06/24 10:32:25;;;;;;;;;;;29.70;84.10;;;;;;1809598;78;20232;-79
2021/06/24 10:34:58;;;;;;;;;;;29.70;83.80;;;;;;1838642;78;20478;-78
2021/06/24 10:37:29;;;;;;;;;;;29.70;81.90;;;;;;1840479;78;20317;-78
2021/06/24 10:40:00;;;;;;;;;;;29.80;83.40;;;;;;1806037;79;20615;-80
2021/06/24 10:42:32;;;;;;;;;;;29.80;83.00;;;;;;1890901;75;20714;-78
2021/06/24 10:45:02;;;;;;;;;;;29.70;83.70;;;;;;1902218;75;20182;-79
2021/06/24 10:47:34;;;;;;;;;;;29.70;83.30;;;;;;1902786;74;20210;-81
2021/06/24 10:52:38;;;;;;;;;;;29.80;84.90;;;;;;1830241;77;20219;-91
2021/06/24 10:55:09;;;;;;;;;;;29.80;85.20;;;;;;1831892;77;20167;-89
2021/06/24 10:57:42;;;;;;;;;;;29.80;85.50;;;;;;1833921;77;20306;-91
2021/06/24 11:00:23;;;;;;;;;;;29.70;85.00;;;;;;1832131;77;20619;-92
2021/06/24 11:03:17;;;;;;;;;;;29.70;84.00;;;;;;1691443;84;20694;-90
2021/06/24 11:08:50;;;;;;;;;;;29.70;85.50;;;;;;1845772;76;20258;-90
2021/06/24 11:12:04;;;;;;;;;;;29.60;85.70;;;;;;1845737;76;20158;-90
2021/06/24 11:14:32;;;;;;;;;;;29.70;85.60;;;;;;1759981;79;20187;-91
2021/06/24 11:17:07;;;;;;;;;;;29.70;85.30;;;;;;1812991;78;20195;-90
2021/06/24 11:19:41;;;;;;;;;;;29.60;85.10;;;;;;1803532;78;20179;-92
2021/06/24 11:22:17;;;;;;;;;;;29.60;85.60;;;;;;1796724;76;20147;-91
2021/06/24 11:24:51;;;;;;;;;;;29.50;84.70;;;;;;1786946;78;20256;-90
2021/06/24 11:27:22;;;;;;;;;;;29.50;86.90;;;;;;1794369;78;20152;-91
2021/06/24 11:29:52;;;;;;;;;;;29.50;87.30;;;;;;1785643;78;20246;-88
2021/06/24 11:32:31;;;;;;;;;;;29.40;87.80;;;;;;1803967;79;20208;-91
2021/06/24 11:35:15;;;;;;;;;;;29.30;88.40;;;;;;1786084;79;20862;-89
2021/06/24 11:37:33;;;;;;;;;;;29.20;88.60;;;;;;1784203;78;20229;-87
2021/06/24 11:40:06;;;;;;;;;;;29.20;88.80;;;;;;1782270;79;20220;-86
2021/06/24 11:42:40;;;;;;;;;;;29.20;90.00;;;;;;1775689;79;20331;-86
2021/06/24 11:45:11;;;;;;;;;;;29.10;89.30;;;;;;1768047;80;20306;-83
2021/06/24 11:47:45;;;;;;;;;;;29.10;89.20;;;;;;1766794;80;20267;-87
2021/06/24 12:00:29;;;;;;;;;;;29.10;88.60;;;;;;1843914;76;20293;-84
2021/06/24 12:05:23;;;;;;;;;;;29.10;87.90;;;;;;1848569;76;20493;-86
2021/06/24 12:07:53;;;;;;;;;;;29.20;87.30;;;;;;1882670;73;20190;-84
2021/06/24 12:10:25;;;;;;;;;;;29.10;88.50;;;;;;1871598;75;20239;-83
2021/06/24 12:13:04;;;;;;;;;;;29.20;88.80;;;;;;1921237;73;20254;-85
2021/06/24 12:18:21;;;;;;;;;;;29.20;90.00;;;;;;1928459;73;20730;-92
2021/06/24 12:20:55;;;;;;;;;;;29.10;89.90;;;;;;1929296;73;20678;-91
2021/06/24 12:23:41;;;;;;;;;;;29.10;89.80;;;;;;1935519;73;20178;-91
2021/06/24 12:27:17;;;;;;;;;;;29.10;90.00;;;;;;1934280;73;20641;-90
2021/06/24 12:29:13;;;;;;;;;;;29.10;89.30;;;;;;1907388;73;20228;-91
2021/06/24 12:31:54;;;;;;;;;;;29.10;89.50;;;;;;1940472;73;20726;-91
2021/06/24 12:34:27;;;;;;;;;;;29.20;89.30;;;;;;1935673;73;20493;-89
2021/06/24 12:37:00;;;;;;;;;;;29.10;89.90;;;;;;1917182;73;20198;-92
2021/06/24 12:39:46;;;;;;;;;;;29.20;89.20;;;;;;1936731;73;20326;-90
2021/06/24 12:42:40;;;;;;;;;;;29.20;89.30;;;;;;1935618;73;20187;-90
2021/06/24 12:45:26;;;;;;;;;;;29.20;90.00;;;;;;1917964;73;20226;-91
2021/06/24 12:48:14;;;;;;;;;;;29.10;90.50;;;;;;1910561;73;20277;-90
2021/06/24 12:50:45;;;;;;;;;;;29.10;90.80;;;;;;1941128;73;20210;-90
2021/06/24 12:53:22;;;;;;;;;;;29.00;91.10;;;;;;1928054;73;20183;-91
2021/06/24 12:55:54;;;;;;;;;;;28.90;90.40;;;;;;1902059;73;20173;-91
2021/06/24 12:59:02;;;;;;;;;;;28.90;91.30;;;;;;1885205;74;20196;-91
2021/06/24 13:01:33;;;;;;;;;;;28.90;91.40;;;;;;1853568;76;20222;-91
2021/06/24 13:04:12;;;;;;;;;;;28.90;91.70;;;;;;1918271;73;20207;-90
2021/06/24 13:07:58;;;;;;;;;;;28.90;92.10;;;;;;1929851;73;20195;-91
2021/06/24 13:09:45;;;;;;;;;;;28.90;92.20;;;;;;1898559;73;20227;-91
2021/06/24 13:12:45;;;;;;;;;;;28.90;92.40;;;;;;1802613;79;20383;-90
2021/06/24 13:15:26;;;;;;;;;;;28.80;92.50;;;;;;1800156;78;20149;-90
2021/06/24 13:17:58;;;;;;;;;;;28.80;92.70;;;;;;1802405;79;20228;-92
2021/06/24 13:20:37;;;;;;;;;;;28.70;92.30;;;;;;1797095;78;20168;-92
2021/06/24 13:23:06;;;;;;;;;;;28.70;92.90;;;;;;1831850;75;20144;-91
2021/06/24 13:25:50;;;;;;;;;;;28.70;93.00;;;;;;1819778;78;20243;-91
2021/06/24 13:28:21;;;;;;;;;;;28.60;92.80;;;;;;1816182;79;20156;-91
2021/06/24 13:30:51;;;;;;;;;;;28.60;92.50;;;;;;1845945;76;20242;-92
2021/06/24 13:33:31;;;;;;;;;;;28.60;92.70;;;;;;1840511;77;20132;-86
2021/06/24 13:36:02;;;;;;;;;;;28.60;92.20;;;;;;1813978;79;20217;-90
2021/06/24 13:38:56;;;;;;;;;;;28.70;92.60;;;;;;1807387;77;20101;-88
2021/06/24 13:44:12;;;;;;;;;;;28.70;92.30;;;;;;1697059;81;20451;-91
2021/06/24 13:46:47;;;;;;;;;;;28.70;92.20;;;;;;1701848;81;20644;-88
2021/06/24 13:49:24;;;;;;;;;;;28.70;92.30;;;;;;1744149;80;20195;-89
2021/06/24 13:51:58;;;;;;;;;;;28.70;92.00;;;;;;1755635;80;20164;-90
2021/06/24 13:54:29;;;;;;;;;;;28.70;92.00;;;;;;1745129;80;20473;-93
2021/06/24 13:57:06;;;;;;;;;;;28.70;91.80;;;;;;1793379;78;20237;-89
2021/06/24 14:00:12;;;;;;;;;;;28.70;92.20;;;;;;1798992;78;20440;-92
2021/06/24 14:02:40;;;;;;;;;;;28.70;92.20;;;;;;1734240;81;20188;-88
2021/06/24 14:05:24;;;;;;;;;;;28.70;92.00;;;;;;1740240;80;20203;-91
2021/06/24 14:07:58;;;;;;;;;;;28.70;92.00;;;;;;1748573;79;20232;-92
2021/06/24 14:10:32;;;;;;;;;;;28.70;92.40;;;;;;1755928;80;20192;-92
2021/06/24 14:13:25;;;;;;;;;;;28.70;92.50;;;;;;1758734;79;20247;-92
2021/06/24 14:16:14;;;;;;;;;;;;;;;;;;;;;
2021/06/24 14:19:00;;;;;;;;;;;28.70;92.10;;;;;;1749017;80;20234;-91
2021/06/24 14:21:58;;;;;;;;;;;;;;;;;;;;;
2021/06/24 14:24:25;;;;;;;;;;;28.70;92.50;;;;;;1717670;82;20522;-93
2021/06/24 14:35:50;;;;;;;;;;;28.60;92.30;;;;;;1661298;86;20286;-91
2021/06/24 14:38:20;;;;;;;;;;;28.60;93.10;;;;;;1676810;84;20215;-92
2021/06/24 14:40:54;;;;;;;;;;;28.60;93.30;;;;;;1632338;87;20312;-91
2021/06/24 14:43:26;;;;;;;;;;;28.60;93.60;;;;;;1622961;86;20226;-91
2021/06/24 14:46:03;;;;;;;;;;;28.50;93.90;;;;;;1650544;87;20186;-91
2021/06/24 14:48:33;;;;;;;;;;;28.50;94.30;;;;;;1684795;83;20238;-91
2021/06/24 14:51:03;;;;;;;;;;;28.50;94.20;;;;;;1734850;82;20227;-91
2021/06/24 14:53:36;;;;;;;;;;;28.40;94.40;;;;;;1722562;83;20211;-89
2021/06/24 14:56:07;;;;;;;;;;;28.30;94.50;;;;;;1727772;83;20204;-91
2021/06/24 14:58:39;;;;;;;;;;;28.30;94.60;;;;;;1734830;81;20155;-90
2021/06/24 15:01:11;;;;;;;;;;;28.20;94.30;;;;;;1729449;83;20262;-91
2021/06/24 15:03:41;;;;;;;;;;;28.00;95.10;;;;;;1735514;81;20144;-90
2021/06/24 15:13:08;;;;;;;;;;;27.00;96.00;;;;;;1706553;84;20693;-89
2021/06/24 15:15:59;;;;;;;;;;;26.60;96.90;;;;;;1656934;84;20259;-90
2021/06/24 15:18:29;;;;;;;;;;;26.40;97.50;;;;;;1703604;83;20147;-90
2021/06/24 15:21:04;;;;;;;;;;;26.30;98.40;;;;;;1696177;82;20144;-91
2021/06/24 15:23:34;;;;;;;;;;;26.30;99.10;;;;;;1755806;80;20282;-91
2021/06/24 15:26:06;;;;;;;;;;;26.30;99.50;;;;;;1748782;81;20246;-89
2021/06/24 15:28:41;;;;;;;;;;;26.40;99.30;;;;;;1754841;81;20180;-89
2021/06/24 15:31:12;;;;;;;;;;;26.40;99.50;;;;;;1758878;81;20217;-88
2021/06/24 15:33:42;;;;;;;;;;;26.50;99.90;;;;;;1754724;81;20189;-89
2021/06/24 15:36:15;;;;;;;;;;;26.50;99.90;;;;;;1751787;80;20167;-91
2021/06/24 15:38:47;;;;;;;;;;;26.60;99.90;;;;;;1757238;80;20232;-89
2021/06/24 15:41:39;;;;;;;;;;;;;;;;;;;;;
2021/06/24 15:47:15;;;;;;;;;;;26.70;98.90;;;;;;1836439;75;20602;-89